METAR AND TAF INFORMATION
METAR FOR TQPF
ADDS - METARS form results

(1301 UTC 29 November 2020)
Data provider http://aviationweather.gov/metar/data/
 
Forecast for: TQPF (WALL BLAKE , VI)
Text: TAF TQPF 291100Z 2912/3012 06008KT 9999 SCT021
Forecast period: 1200 UTC 29 November 2020 to 1200 UTC 30 November 2020
Forecast type: FROM: standard forecast or significant change
Winds: from the ENE (60 degrees) at 9 MPH (8 knots; 4.1 m/s)
Visibility: 6 or more miles (10+ km)
Ceiling: at least 12,000 feet AGL
Clouds: scattered clouds at 2100 feet AGL
Weather: no significant weather forecast for this period

 AIRPORT MAP

 RUNWAY INFORMATION
Runway 10 Runway length 5462 ft Runway width 98 ft
Runway elevation 122 ft Runway displaced threshold 492 ft Runway heading 91
Runway 28 Runway length 5462 ft Runway width 98 ft
Runway elevation 81 ft Runway displaced threshold 492 ft Runway heading 271

 AIRPORT FREQUENCIES
Type APP Name JULIANA AP Frequency 128.95 MHZ
Type TWR Name TWR Frequency 118.5 MHZ

 AIRPORT NEAR NAVIGATION AIDS
Type NDB Name Wallblake Frequency 209 KHZ



Powered by Virtual Airlines Manager [v2.6.2]